Time;durP1;ratioP1;P1;durP2;ratioP2;P2;SDS_P1;SDS_P2;PMS_P1;PMS_P2;Temp;Humidity;BMP_temperature;BMP_pressure;BME280_temperature;BME280_humidity;BME280_pressure;Samples;Min_cycle;Max_cycle;Signal;HPM_P1;HPM_P2
2022/08/16 00:01:16;;;;;;;3.30;3.00;;;;;;;16.14;100.00;95260.13;5048685;28;24462;-73
2022/08/16 00:03:43;;;;;;;4.38;3.33;;;;;;;16.05;100.00;95263.56;5047180;28;24459;-73
2022/08/16 00:06:10;;;;;;;4.32;3.22;;;;;;;16.13;100.00;95257.63;5040014;28;24435;-74
2022/08/16 00:08:37;;;;;;;3.88;3.35;;;;;;;16.15;100.00;95251.31;5043460;28;24462;-73
2022/08/16 00:11:04;;;;;;;2.75;2.55;;;;;;;16.03;100.00;95255.06;5043347;28;24436;-73
2022/08/16 00:13:32;;;;;;;3.90;3.20;;;;;;;16.06;100.00;95254.81;5047553;28;24794;-73
2022/08/16 00:16:00;;;;;;;4.05;3.05;;;;;;;16.07;100.00;95247.78;5045854;28;24478;-73
2022/08/16 00:18:26;;;;;;;4.03;3.20;;;;;;;16.01;100.00;95264.00;5041835;28;24988;-73
2022/08/16 00:20:53;;;;;;;3.42;3.00;;;;;;;15.94;100.00;95263.75;5051227;28;24840;-73
2022/08/16 00:23:20;;;;;;;3.27;2.97;;;;;;;15.97;100.00;95263.47;5046470;28;24448;-74
2022/08/16 00:25:46;;;;;;;3.27;2.60;;;;;;;16.02;100.00;95256.06;5047320;28;24435;-73
2022/08/16 00:28:13;;;;;;;3.42;2.70;;;;;;;15.94;100.00;95258.53;5035762;28;24984;-74
2022/08/16 00:30:40;;;;;;;3.35;3.00;;;;;;;15.82;100.00;95263.09;5048738;28;24876;-73
2022/08/16 00:33:08;;;;;;;3.58;3.28;;;;;;;15.66;100.00;95261.06;5046728;28;24436;-73
2022/08/16 00:35:38;;;;;;;3.40;3.10;;;;;;;15.76;100.00;95260.22;5046733;28;24445;-73
2022/08/16 00:38:05;;;;;;;3.78;3.08;;;;;;;15.82;100.00;95257.88;5032013;28;24494;-73
2022/08/16 00:40:35;;;;;;;4.53;3.13;;;;;;;15.86;100.00;95261.03;5048384;28;24438;-73
2022/08/16 00:43:03;;;;;;;3.70;3.15;;;;;;;15.91;100.00;95258.84;5049728;28;24435;-73
2022/08/16 00:45:35;;;;;;;3.60;3.00;;;;;;;15.81;100.00;95263.25;5050268;28;24451;-73
2022/08/16 00:48:04;;;;;;;3.33;3.03;;;;;;;15.70;100.00;95266.84;5040225;28;24436;-73
2022/08/16 00:50:34;;;;;;;3.17;2.67;;;;;;;15.63;100.00;95256.09;5050036;28;24462;-73
2022/08/16 00:53:01;;;;;;;4.05;2.90;;;;;;;15.62;100.00;95262.28;5050323;28;24988;-74
2022/08/16 00:55:28;;;;;;;3.05;2.75;;;;;;;15.59;100.00;95267.78;5049092;28;24431;-73
2022/08/16 00:57:57;;;;;;;4.05;3.00;;;;;;;15.63;100.00;95255.28;5050658;28;24526;-74
2022/08/16 01:00:27;;;;;;;2.80;2.60;;;;;;;15.70;100.00;95267.66;5050203;28;25339;-74
2022/08/16 01:02:54;;;;;;;4.10;3.25;;;;;;;15.69;100.00;95265.19;5048051;28;24439;-74
2022/08/16 01:05:21;;;;;;;3.92;2.80;;;;;;;15.67;100.00;95265.31;5048645;28;24455;-73
2022/08/16 01:07:49;;;;;;;3.10;2.80;;;;;;;15.71;100.00;95263.25;5047178;28;25071;-73
2022/08/16 01:10:15;;;;;;;3.38;3.08;;;;;;;15.73;100.00;95262.16;5046133;28;25206;-73
2022/08/16 01:12:42;;;;;;;3.30;3.00;;;;;;;15.76;100.00;95260.22;5046626;28;24476;-73
2022/08/16 01:15:11;;;;;;;2.97;2.75;;;;;;;15.79;100.00;95258.16;5046812;28;24431;-73
2022/08/16 01:17:38;;;;;;;5.78;2.95;;;;;;;15.81;100.00;95266.69;5043364;28;24534;-73
2022/08/16 01:20:07;;;;;;;4.65;2.78;;;;;;;15.82;100.00;95270.91;5046171;28;24442;-74
2022/08/16 01:22:42;;;;;;;5.65;2.90;;;;;;;15.89;100.00;95268.59;5042001;28;24479;-73
2022/08/16 01:25:14;;;;;;;2.60;2.40;;;;;;;15.89;100.00;95271.19;5042660;28;24542;-73
2022/08/16 01:27:44;;;;;;;6.53;2.90;;;;;;;15.90;100.00;95263.19;5046400;28;25081;-73
2022/08/16 01:30:14;;;;;;;4.10;2.95;;;;;;;15.80;100.00;95267.66;5047647;28;24445;-73
2022/08/16 01:32:42;;;;;;;4.22;2.80;;;;;;;15.60;100.00;95265.97;5041384;28;24443;-73
2022/08/16 01:35:14;;;;;;;4.90;3.25;;;;;;;15.45;100.00;95268.19;5049253;28;24987;-73
2022/08/16 01:37:46;;;;;;;3.30;3.00;;;;;;;15.52;100.00;95271.09;5049784;28;24439;-73
2022/08/16 01:40:16;;;;;;;5.50;3.13;;;;;;;15.35;100.00;95264.75;5049448;28;24430;-73
2022/08/16 01:42:43;;;;;;;3.47;2.70;;;;;;;15.27;100.00;95265.44;5049302;28;24470;-73
2022/08/16 01:45:10;;;;;;;3.03;2.67;;;;;;;15.25;100.00;95262.97;5049542;28;24451;-73
2022/08/16 01:47:38;;;;;;;2.85;2.60;;;;;;;15.37;100.00;95268.06;5044086;28;24450;-73
2022/08/16 01:50:07;;;;;;;3.50;2.70;;;;;;;15.43;100.00;95260.50;5037848;28;24802;-74
2022/08/16 01:52:34;;;;;;;2.90;2.50;;;;;;;15.47;100.00;95261.88;5040692;28;24446;-73
2022/08/16 01:55:01;;;;;;;3.97;2.63;;;;;;;15.50;100.00;95255.56;5049435;28;24435;-73
2022/08/16 01:57:29;;;;;;;2.80;2.55;;;;;;;15.52;100.00;95263.25;5049482;28;24446;-73
2022/08/16 01:59:57;;;;;;;5.28;2.72;;;;;;;15.58;100.00;95262.72;5049368;28;24435;-74
2022/08/16 02:02:24;;;;;;;3.03;2.73;;;;;;;15.60;100.00;95265.97;5047647;28;24530;-74
2022/08/16 02:04:51;;;;;;;2.35;2.15;;;;;;;15.67;100.00;95261.88;5041116;28;24459;-74
2022/08/16 02:07:18;;;;;;;2.70;2.50;;;;;;;15.58;100.00;95254.88;5048471;28;24439;-74
2022/08/16 02:09:46;;;;;;;3.50;2.80;;;;;;;15.40;100.00;95254.75;5048842;28;24442;-74
2022/08/16 02:12:15;;;;;;;3.20;2.70;;;;;;;15.04;100.00;95259.66;5039985;28;24435;-73
2022/08/16 02:14:43;;;;;;;3.83;3.13;;;;;;;15.08;100.00;95258.44;5045752;28;24894;-74
2022/08/16 02:17:11;;;;;;;3.88;2.70;;;;;;;15.22;100.00;95252.81;5045338;28;24431;-74
2022/08/16 02:19:41;;;;;;;5.13;2.88;;;;;;;15.10;100.00;95255.72;5040286;28;24435;-74
2022/08/16 02:22:12;;;;;;;3.53;3.10;;;;;;;14.94;100.00;95254.47;5041997;28;24457;-74
2022/08/16 02:24:39;;;;;;;3.60;3.03;;;;;;;15.07;100.00;95259.41;5048874;28;24482;-74
2022/08/16 02:27:06;;;;;;;3.80;3.00;;;;;;;15.15;100.00;95251.72;5044658;28;24439;-74
2022/08/16 02:29:32;;;;;;;3.38;3.08;;;;;;;15.20;100.00;95244.31;5047579;28;24432;-74
2022/08/16 02:32:00;;;;;;;4.05;3.05;;;;;;;14.93;100.00;95251.97;5043205;28;24443;-73
2022/08/16 02:34:27;;;;;;;3.60;3.30;;;;;;;14.73;100.00;95251.94;5046740;28;24999;-73
2022/08/16 02:36:53;;;;;;;3.65;3.08;;;;;;;14.83;100.00;95244.16;5040861;28;24455;-73
2022/08/16 02:39:20;;;;;;;5.53;3.13;;;;;;;14.86;100.00;95246.47;5048353;28;24439;-73
2022/08/16 02:41:48;;;;;;;3.97;3.35;;;;;;;14.88;100.00;95241.97;5043679;28;24431;-73
2022/08/16 02:44:15;;;;;;;4.00;3.05;;;;;;;14.99;100.00;95243.63;5041322;28;24446;-73
2022/08/16 02:46:43;;;;;;;3.53;2.83;;;;;;;15.14;100.00;95239.66;5047474;28;24450;-73
2022/08/16 02:49:11;;;;;;;3.15;2.67;;;;;;;15.25;100.00;95242.13;5049319;28;24439;-73
2022/08/16 02:51:39;;;;;;;4.20;2.90;;;;;;;15.33;100.00;95236.22;5052789;28;24447;-73
2022/08/16 02:54:07;;;;;;;5.93;2.92;;;;;;;15.36;100.00;95240.34;5050039;28;25003;-74
2022/08/16 02:56:34;;;;;;;4.05;3.20;;;;;;;15.37;100.00;95237.56;5050587;28;24431;-74
2022/08/16 02:59:01;;;;;;;4.30;3.30;;;;;;;15.44;100.00;95237.84;5052213;28;24450;-73
2022/08/16 03:01:31;;;;;;;4.43;3.22;;;;;;;15.49;100.00;95225.19;5049864;28;24442;-73
2022/08/16 03:03:59;;;;;;;3.97;3.38;;;;;;;15.56;100.00;95222.84;5049711;28;24818;-74
2022/08/16 03:06:28;;;;;;;2.88;2.60;;;;;;;15.58;100.00;95226.16;5049543;28;24539;-74
2022/08/16 03:08:55;;;;;;;3.50;3.17;;;;;;;15.58;100.00;95229.59;5049802;28;24443;-74
2022/08/16 03:11:21;;;;;;;3.05;2.78;;;;;;;15.94;100.00;95227.19;5046719;28;24427;-74
2022/08/16 03:13:51;;;;;;;4.97;3.15;;;;;;;15.86;100.00;95219.25;5050906;28;24438;-74
2022/08/16 03:16:19;;;;;;;3.85;3.03;;;;;;;15.82;100.00;95220.50;5049620;28;24513;-74
2022/08/16 03:18:46;;;;;;;3.50;2.90;;;;;;;15.79;100.00;95221.59;5042983;28;24450;-74
2022/08/16 03:21:12;;;;;;;5.80;3.38;;;;;;;15.66;100.00;95224.53;5049110;28;25022;-74
2022/08/16 03:23:41;;;;;;;7.28;3.08;;;;;;;15.65;100.00;95211.59;5051759;28;24474;-74
2022/08/16 03:26:07;;;;;;;3.22;2.70;;;;;;;15.40;100.00;95218.22;5046877;28;24456;-73
2022/08/16 03:28:34;;;;;;;4.03;3.22;;;;;;;15.41;100.00;95218.06;5040355;28;24475;-74
2022/08/16 03:31:01;;;;;;;3.28;2.97;;;;;;;15.34;100.00;95210.94;5049688;28;24790;-74
2022/08/16 03:33:27;;;;;;;3.80;3.25;;;;;;;15.35;100.00;95208.22;5052051;28;24475;-74
2022/08/16 03:35:58;;;;;;;5.30;3.25;;;;;;;15.32;100.00;95210.25;5045937;28;24439;-74
2022/08/16 03:38:26;;;;;;;4.18;3.40;;;;;;;15.30;100.00;95213.00;5044705;28;24446;-74
2022/08/16 03:40:54;;;;;;;3.78;3.13;;;;;;;15.34;100.00;95216.16;5047333;28;24526;-74
2022/08/16 03:43:22;;;;;;;3.47;3.13;;;;;;;15.40;100.00;95218.22;5051828;28;24447;-74
2022/08/16 03:45:51;;;;;;;6.60;3.17;;;;;;;15.47;100.00;95224.53;5040642;28;24596;-74
2022/08/16 03:48:17;;;;;;;3.08;2.70;;;;;;;15.51;100.00;95228.50;5051583;28;24576;-74
2022/08/16 03:50:44;;;;;;;4.35;3.20;;;;;;;15.53;100.00;95216.13;5048368;28;24432;-74
2022/08/16 03:53:10;;;;;;;3.00;2.70;;;;;;;15.54;100.00;95215.19;5050064;28;24486;-74
2022/08/16 03:55:37;;;;;;;11.75;3.05;;;;;;;15.47;100.00;95214.09;5048155;28;24431;-74
2022/08/16 03:58:04;;;;;;;4.25;2.72;;;;;;;15.40;100.00;95219.03;5050175;28;24984;-74
2022/08/16 04:00:31;;;;;;;3.10;2.80;;;;;;;15.49;100.00;95215.56;5049790;28;24802;-74
2022/08/16 04:03:01;;;;;;;3.00;2.70;;;;;;;15.47;100.00;95214.91;5051102;28;24455;-74
2022/08/16 04:05:28;;;;;;;6.72;3.10;;;;;;;15.45;100.00;95224.66;5047721;28;24458;-74
2022/08/16 04:07:54;;;;;;;2.72;2.42;;;;;;;15.50;100.00;95224.25;5043852;28;24442;-74
2022/08/16 04:10:21;;;;;;;3.22;2.83;;;;;;;15.46;100.00;95225.47;5050667;28;24999;-73
2022/08/16 04:12:48;;;;;;;3.65;3.00;;;;;;;15.35;100.00;95225.63;5045837;28;24454;-73
2022/08/16 04:15:17;;;;;;;8.27;3.13;;;;;;;15.42;100.00;95226.72;5045863;28;24436;-73
2022/08/16 04:17:44;;;;;;;4.72;3.05;;;;;;;15.50;100.00;95226.88;5045725;28;24450;-73
2022/08/16 04:20:13;;;;;;;4.20;3.63;;;;;;;15.37;100.00;95234.97;5045814;28;24436;-73
2022/08/16 04:22:42;;;;;;;5.47;3.20;;;;;;;15.31;100.00;95229.47;5045297;28;24431;-73
2022/08/16 04:25:10;;;;;;;3.38;3.03;;;;;;;15.41;100.00;95235.50;5047305;28;24513;-72
2022/08/16 04:27:36;;;;;;;4.13;2.97;;;;;;;15.48;100.00;95226.16;5049030;28;24432;-73
2022/08/16 04:30:08;;;;;;;5.15;3.05;;;;;;;15.54;100.00;95222.19;5048145;28;24442;-73
2022/08/16 04:32:36;;;;;;;7.93;3.13;;;;;;;15.56;100.00;95223.69;5045149;28;24435;-74
2022/08/16 04:35:03;;;;;;;4.85;3.47;;;;;;;15.53;100.00;95230.97;5040993;28;24435;-74
2022/08/16 04:37:30;;;;;;;3.50;3.20;;;;;;;15.51;100.00;95231.13;5050903;28;24430;-74
2022/08/16 04:39:56;;;;;;;3.40;3.08;;;;;;;15.62;100.00;95238.78;5048423;28;24427;-74
2022/08/16 04:42:23;;;;;;;4.45;3.53;;;;;;;15.64;100.00;95239.44;5045091;28;24431;-74
2022/08/16 04:44:49;;;;;;;5.63;3.40;;;;;;;15.66;100.00;95242.78;5050097;28;24533;-74
2022/08/16 04:47:16;;;;;;;5.65;3.42;;;;;;;15.68;100.00;95238.28;5050192;28;24435;-74
2022/08/16 04:49:44;;;;;;;4.10;3.42;;;;;;;15.71;100.00;95243.19;5049565;28;24431;-74
2022/08/16 04:52:11;;;;;;;6.05;3.17;;;;;;;15.71;100.00;95239.75;5047104;28;24431;-74
2022/08/16 04:54:39;;;;;;;5.50;3.70;;;;;;;15.55;100.00;95242.09;5041765;28;25045;-74
2022/08/16 04:57:06;;;;;;;3.60;3.30;;;;;;;15.23;100.00;95249.25;5044113;28;25027;-74
2022/08/16 04:59:32;;;;;;;4.47;3.63;;;;;;;15.05;100.00;95248.28;5052217;28;24987;-74
2022/08/16 05:01:58;;;;;;;5.00;4.05;;;;;;;15.06;100.00;95249.94;5042521;28;24443;-74
2022/08/16 05:04:25;;;;;;;4.45;3.97;;;;;;;15.01;100.00;95244.28;5050064;28;24443;-74
2022/08/16 05:06:53;;;;;;;6.97;3.97;;;;;;;14.89;100.00;95259.25;5041954;28;24483;-74
2022/08/16 05:09:19;;;;;;;5.88;3.97;;;;;;;14.82;100.00;95252.09;5041842;28;24439;-74
2022/08/16 05:11:46;;;;;;;5.85;3.88;;;;;;;14.80;100.00;95264.47;5041372;28;25012;-74
2022/08/16 05:14:13;;;;;;;6.80;4.22;;;;;;;14.77;100.00;95265.53;5049805;28;24447;-73
2022/08/16 05:16:40;;;;;;;3.90;3.53;;;;;;;14.96;100.00;95262.97;5049236;28;24438;-73
2022/08/16 05:19:07;;;;;;;9.00;4.03;;;;;;;15.15;100.00;95266.56;5048549;28;24441;-74
2022/08/16 05:21:34;;;;;;;4.78;4.30;;;;;;;15.30;100.00;95264.34;5049903;28;24988;-74
2022/08/16 05:24:02;;;;;;;6.32;3.92;;;;;;;15.41;100.00;95261.59;5045948;28;24463;-73
2022/08/16 05:26:31;;;;;;;5.20;4.27;;;;;;;15.53;100.00;95264.88;5050084;28;24480;-80
2022/08/16 05:28:58;;;;;;;4.15;3.78;;;;;;;15.58;100.00;95255.69;5050438;28;24444;-75
2022/08/16 05:31:26;;;;;;;5.23;3.80;;;;;;;15.70;100.00;95256.38;5045720;28;24428;-76
2022/08/16 05:33:53;;;;;;;4.53;4.07;;;;;;;15.77;100.00;95269.72;5044884;28;24536;-75
2022/08/16 05:36:20;;;;;;;7.33;4.03;;;;;;;15.86;100.00;95261.03;5049781;28;25057;-70
2022/08/16 05:38:46;;;;;;;5.63;4.70;;;;;;;16.00;100.00;95259.75;5048955;28;25022;-74
2022/08/16 05:41:15;;;;;;;4.13;3.75;;;;;;;16.22;100.00;95267.25;5049334;28;24438;-74
2022/08/16 05:43:41;;;;;;;5.13;4.53;;;;;;;16.23;100.00;95268.06;5049469;28;24522;-75
2022/08/16 05:46:08;;;;;;;5.38;4.53;;;;;;;16.33;100.00;95267.06;5041027;28;24444;-74
2022/08/16 05:48:35;;;;;;;5.38;4.53;;;;;;;16.39;100.00;95273.53;5046881;28;24442;-74
2022/08/16 05:51:01;;;;;;;5.70;4.50;;;;;;;16.54;100.00;95272.09;5041501;28;24431;-74
2022/08/16 05:53:28;;;;;;;4.83;4.40;;;;;;;16.59;100.00;95274.25;5041743;28;24503;-75
2022/08/16 05:55:54;;;;;;;5.13;4.13;;;;;;;16.68;100.00;95286.44;5049382;28;24435;-74
2022/08/16 05:58:22;;;;;;;7.18;5.13;;;;;;;16.77;100.00;95287.41;5048578;28;24825;-74
2022/08/16 06:00:49;;;;;;;4.70;4.30;;;;;;;16.78;100.00;95289.88;5043677;28;24529;-74
2022/08/16 06:03:15;;;;;;;5.13;4.63;;;;;;;16.69;100.00;95288.09;5043640;28;24438;-74
2022/08/16 06:05:42;;;;;;;8.45;5.13;;;;;;;16.47;100.00;95286.69;5047367;28;24455;-73
2022/08/16 06:08:08;;;;;;;9.90;5.40;;;;;;;16.48;100.00;95287.50;5047641;28;24442;-74
2022/08/16 06:10:35;;;;;;;7.43;4.40;;;;;;;16.66;100.00;95289.22;5045972;28;24435;-73
2022/08/16 06:13:01;;;;;;;4.93;4.43;;;;;;;16.82;100.00;95298.25;5048817;28;24442;-74
2022/08/16 06:15:29;;;;;;;6.75;4.68;;;;;;;16.97;100.00;95298.56;5048976;28;24442;-73
2022/08/16 06:17:57;;;;;;;6.38;4.57;;;;;;;16.97;100.00;95301.19;5036395;28;24447;-73
2022/08/16 06:20:27;;;;;;;7.13;4.35;;;;;;;16.84;100.00;95309.41;5044689;28;24457;-75
2022/08/16 06:22:55;;;;;;;5.10;4.35;;;;;;;16.80;100.00;95302.81;5042135;28;24442;-74
2022/08/16 06:25:22;;;;;;;9.55;4.70;;;;;;;16.98;100.00;95295.78;5049348;28;24532;-74
2022/08/16 06:27:49;;;;;;;7.82;4.57;;;;;;;17.05;100.00;95291.63;5052149;28;24481;-74
2022/08/16 06:30:15;;;;;;;5.10;4.60;;;;;;;17.21;100.00;95290.16;5053126;28;24435;-73
2022/08/16 06:32:43;;;;;;;5.97;4.50;;;;;;;17.28;100.00;95299.03;5052320;28;24793;-74
2022/08/16 06:35:11;;;;;;;6.20;4.93;;;;;;;17.20;100.00;95296.34;5051572;28;24442;-73
2022/08/16 06:37:39;;;;;;;5.95;4.70;;;;;;;17.35;100.00;95292.25;5045024;28;24492;-74
2022/08/16 06:40:07;;;;;;;6.78;4.55;;;;;;;17.44;100.00;95296.59;5043566;28;25003;-73
2022/08/16 06:42:34;;;;;;;6.23;5.10;;;;;;;17.41;100.00;95300.34;5052640;28;24538;-73
2022/08/16 06:45:01;;;;;;;6.82;4.78;;;;;;;17.70;100.00;95290.59;5046054;28;24825;-74
2022/08/16 06:47:28;;;;;;;6.15;4.47;;;;;;;18.00;100.00;95290.19;5051159;28;24454;-74
2022/08/16 06:49:55;;;;;;;5.43;4.88;;;;;;;18.28;100.00;95287.41;5050260;28;24440;-74
2022/08/16 06:52:22;;;;;;;6.80;4.72;;;;;;;18.47;100.00;95295.06;5041822;28;24438;-74
2022/08/16 06:54:48;;;;;;;7.40;5.30;;;;;;;18.49;100.00;95298.34;5044560;28;24442;-74
2022/08/16 06:57:16;;;;;;;5.13;4.63;;;;;;;18.65;100.00;95297.63;5051698;28;25059;-73
2022/08/16 06:59:42;;;;;;;6.83;4.53;;;;;;;18.98;100.00;95301.19;5051867;28;24431;-74
2022/08/16 07:02:09;;;;;;;8.88;4.93;;;;;;;19.06;100.00;95300.41;5049005;28;25094;-74
2022/08/16 07:04:35;;;;;;;7.75;4.50;;;;;;;19.17;100.00;95299.28;5046459;28;24458;-75
2022/08/16 07:07:05;;;;;;;6.32;4.85;;;;;;;19.10;100.00;95293.88;5045248;28;24452;-74
2022/08/16 07:09:32;;;;;;;7.18;5.00;;;;;;;18.98;100.00;95301.19;5052257;28;24538;-74
2022/08/16 07:11:58;;;;;;;5.03;4.30;;;;;;;19.17;100.00;95297.50;5048615;28;24432;-74
2022/08/16 07:14:25;;;;;;;6.78;4.75;;;;;;;19.29;100.00;95287.50;5041676;28;24439;-73
2022/08/16 07:16:51;;;;;;;7.57;4.20;;;;;;;19.66;100.00;95292.34;5048351;28;24431;-74
2022/08/16 07:19:18;;;;;;;6.97;4.28;;;;;;;19.89;100.00;95300.38;5046180;28;24497;-75
2022/08/16 07:21:44;;;;;;;9.88;4.65;;;;;;;19.88;100.00;95301.38;5049038;28;25014;-74
2022/08/16 07:24:12;;;;;;;4.85;4.35;;;;;;;19.83;100.00;95295.75;5044050;28;24444;-73
2022/08/16 07:26:39;;;;;;;6.25;4.35;;;;;;;19.96;100.00;95290.84;5049925;28;24844;-73
2022/08/16 07:29:05;;;;;;;6.07;4.60;;;;;;;19.92;100.00;95292.16;5047237;28;24439;-74
2022/08/16 07:31:32;;;;;;;5.70;4.53;;;;;;;19.86;100.00;95292.00;5049454;28;24526;-73
2022/08/16 07:33:58;;;;;;;5.30;3.90;;;;;;;20.14;100.00;95288.03;5046886;28;24575;-74
2022/08/16 07:36:25;;;;;;;8.82;4.70;;;;;;;20.01;100.00;95292.97;5050154;28;24427;-74
2022/08/16 07:38:52;;;;;;;5.70;4.10;;;;;;;20.41;100.00;95297.34;5043403;28;24957;-73
2022/08/16 07:41:20;;;;;;;5.95;3.65;;;;;;;20.87;99.22;95288.81;5048399;28;24538;-75
2022/08/16 07:43:47;;;;;;;6.20;4.43;;;;;;;20.74;97.32;95292.00;5052457;28;24446;-74
2022/08/16 07:46:14;;;;;;;5.70;4.22;;;;;;;20.90;95.53;95291.94;5049369;28;24860;-73
2022/08/16 07:48:40;;;;;;;7.80;3.90;;;;;;;21.43;98.15;95303.53;5054355;28;24999;-73
2022/08/16 07:51:07;;;;;;;6.32;4.00;;;;;;;21.81;88.50;95300.97;5052688;28;24446;-73
2022/08/16 07:53:33;;;;;;;7.03;4.28;;;;;;;22.15;90.41;95308.44;5047824;28;24436;-73
2022/08/16 07:56:00;;;;;;;6.05;4.13;;;;;;;22.38;85.20;95308.38;5051318;28;24524;-73
2022/08/16 07:58:29;;;;;;;6.15;3.50;;;;;;;22.67;85.58;95306.75;5045536;28;24427;-73
2022/08/16 08:00:56;;;;;;;5.72;3.88;;;;;;;22.21;81.35;95313.00;5049011;28;24442;-73
2022/08/16 08:03:23;;;;;;;8.98;3.97;;;;;;;22.10;80.21;95317.84;5047433;28;24462;-73
2022/08/16 08:05:50;;;;;;;7.53;3.88;;;;;;;22.45;84.32;95313.75;5047931;28;24439;-73
2022/08/16 08:08:17;;;;;;;5.88;4.00;;;;;;;22.69;79.43;95313.50;5050600;28;24435;-72
2022/08/16 08:10:43;;;;;;;5.18;3.80;;;;;;;22.85;81.28;95314.31;5051379;28;24985;-73
2022/08/16 08:13:10;;;;;;;4.72;3.92;;;;;;;23.07;81.21;95312.59;5043992;28;24435;-72
2022/08/16 08:15:37;;;;;;;6.68;3.75;;;;;;;22.53;78.29;95313.66;5051427;28;24551;-75
2022/08/16 08:18:04;;;;;;;6.45;3.83;;;;;;;23.06;77.56;95318.84;5043582;28;24443;-76
2022/08/16 08:20:31;;;;;;;4.90;4.00;;;;;;;23.53;76.89;95318.38;5051595;28;24770;-73
2022/08/16 08:22:58;;;;;;;4.40;3.50;;;;;;;23.77;75.04;95322.53;5048940;28;24438;-72
2022/08/16 08:25:25;;;;;;;5.50;3.92;;;;;;;23.98;73.93;95326.19;5050604;28;24438;-75
2022/08/16 08:27:52;;;;;;;4.80;3.53;;;;;;;24.11;72.22;95326.31;5046670;28;24953;-73
2022/08/16 08:30:18;;;;;;;6.47;3.70;;;;;;;24.31;73.48;95327.25;5047852;28;24438;-73
2022/08/16 08:32:46;;;;;;;8.15;4.35;;;;;;;24.10;71.88;95328.13;5050579;28;24848;-75
2022/08/16 08:35:13;;;;;;;7.15;4.18;;;;;;;23.53;72.77;95323.69;5047252;28;24446;-75
2022/08/16 08:37:40;;;;;;;7.30;4.35;;;;;;;24.42;73.55;95327.78;5050435;28;24805;-71
2022/08/16 08:40:10;;;;;;;6.05;4.10;;;;;;;24.42;74.31;95323.31;5048020;28;24509;-74
2022/08/16 08:42:37;;;;;;;5.32;3.97;;;;;;;24.51;70.98;95326.59;5043101;28;24443;-71
2022/08/16 08:45:04;;;;;;;12.15;4.05;;;;;;;24.70;70.20;95336.53;5049863;28;24442;-73
2022/08/16 08:47:32;;;;;;;8.38;4.25;;;;;;;24.70;68.54;95333.88;5050003;28;24451;-74
2022/08/16 08:50:00;;;;;;;8.48;4.50;;;;;;;23.52;70.32;95329.97;5049996;28;24447;-73
2022/08/16 08:52:26;;;;;;;7.85;4.35;;;;;;;23.95;70.24;95327.38;5047845;28;24432;-73
2022/08/16 08:54:53;;;;;;;6.60;4.28;;;;;;;24.68;70.88;95332.44;5050159;28;24443;-71
2022/08/16 08:57:19;;;;;;;8.60;4.07;;;;;;;24.36;66.60;95335.47;5050493;28;25007;-70
2022/08/16 08:59:46;;;;;;;6.80;4.05;;;;;;;24.74;68.80;95334.31;5049139;28;24801;-74
2022/08/16 09:02:13;;;;;;;7.75;3.55;;;;;;;24.43;67.01;95338.16;5045487;28;24435;-72
2022/08/16 09:04:40;;;;;;;5.75;3.92;;;;;;;24.03;68.89;95340.47;5042992;28;24444;-71
2022/08/16 09:07:07;;;;;;;6.67;3.80;;;;;;;23.54;71.00;95337.72;5041413;28;24486;-72
2022/08/16 09:09:34;;;;;;;8.70;3.70;;;;;;;23.41;72.36;95338.41;5050225;28;24446;-72
2022/08/16 09:12:01;;;;;;;7.25;4.10;;;;;;;23.89;71.78;95338.72;5046806;28;24431;-71
2022/08/16 09:14:28;;;;;;;5.95;3.92;;;;;;;24.61;70.63;95337.69;5049964;28;24554;-72
2022/08/16 09:16:54;;;;;;;5.82;3.70;;;;;;;24.55;67.84;95339.28;5044581;28;24431;-72
2022/08/16 09:19:21;;;;;;;4.90;3.60;;;;;;;24.14;69.95;95341.81;5049795;28;24438;-71
2022/08/16 09:21:49;;;;;;;5.60;3.97;;;;;;;24.11;68.22;95347.47;5047071;28;24532;-71
2022/08/16 09:24:18;;;;;;;5.43;3.55;;;;;;;24.08;69.93;95335.44;5049015;28;24780;-71
2022/08/16 09:26:44;;;;;;;6.97;3.75;;;;;;;23.87;72.09;95338.88;5049859;28;24456;-71
2022/08/16 09:29:10;;;;;;;9.70;3.77;;;;;;;23.67;71.11;95336.06;5048052;28;24442;-70
2022/08/16 09:31:37;;;;;;;6.22;3.45;;;;;;;23.59;70.13;95337.97;5049536;28;25019;-70
2022/08/16 09:34:04;;;;;;;6.35;4.03;;;;;;;23.61;73.45;95336.78;5041510;28;24467;-69
2022/08/16 09:36:30;;;;;;;6.10;3.97;;;;;;;23.49;69.95;95343.56;5047483;28;24435;-70
2022/08/16 09:38:57;;;;;;;7.78;4.00;;;;;;;23.98;70.22;95342.84;5041360;28;24529;-72
2022/08/16 09:41:25;;;;;;;6.60;4.00;;;;;;;23.54;70.50;95349.09;5045573;28;24442;-73
2022/08/16 09:43:52;;;;;;;5.20;4.20;;;;;;;22.78;77.37;95353.00;5049676;28;24439;-73
2022/08/16 09:46:19;;;;;;;10.95;4.50;;;;;;;22.69;81.44;95357.53;5046396;28;24989;-74
2022/08/16 09:48:46;;;;;;;7.43;4.10;;;;;;;23.35;73.78;95345.22;5040840;28;25294;-72
2022/08/16 09:51:13;;;;;;;6.05;3.60;;;;;;;23.42;76.92;95346.13;5044007;28;24521;-72
2022/08/16 09:53:40;;;;;;;7.57;4.15;;;;;;;23.51;74.70;95352.13;5036431;28;24454;-71
2022/08/16 09:56:14;;;;;;;4.93;3.67;;;;;;;23.47;73.75;95350.84;5035978;28;24521;-72
2022/08/16 09:58:42;;;;;;;6.22;4.22;;;;;;;23.98;73.07;95347.34;5047602;28;24459;-73
2022/08/16 10:01:08;;;;;;;5.20;4.10;;;;;;;24.37;72.25;95350.31;5037226;28;25012;-72
2022/08/16 10:03:35;;;;;;;6.70;3.70;;;;;;;24.22;67.72;95346.13;5039818;28;24450;-73
2022/08/16 10:06:01;;;;;;;9.27;4.40;;;;;;;24.40;67.17;95346.50;5049256;28;24435;-73
2022/08/16 10:08:28;;;;;;;10.15;3.92;;;;;;;24.10;68.69;95345.81;5047874;28;24455;-72
2022/08/16 10:13:40;;;;;;;8.27;3.65;;;;;;;24.16;66.09;95347.69;5046835;28;24450;-73
2022/08/16 10:16:12;;;;;;;5.32;3.80;;;;;;;24.10;68.73;95351.94;5045988;28;24980;-73
2022/08/16 10:18:40;;;;;;;7.22;4.10;;;;;;;23.99;65.98;95354.25;5044389;28;24809;-73
2022/08/16 10:21:08;;;;;;;7.40;4.20;;;;;;;23.66;68.95;95350.28;5036855;28;24427;-70
2022/08/16 10:23:35;;;;;;;5.78;3.65;;;;;;;24.00;66.83;95338.22;5047586;28;24490;-71
2022/08/16 10:26:02;;;;;;;6.70;3.58;;;;;;;23.75;65.94;95344.88;5044794;28;24520;-72
2022/08/16 10:28:29;;;;;;;4.10;3.40;;;;;;;23.58;66.72;95341.59;5046039;28;24457;-72
2022/08/16 10:30:57;;;;;;;6.65;3.33;;;;;;;23.46;68.08;95340.47;5037280;28;24976;-71
2022/08/16 10:33:25;;;;;;;5.40;3.57;;;;;;;23.53;68.58;95346.66;5049055;28;24442;-70
2022/08/16 10:35:52;;;;;;;6.43;3.85;;;;;;;23.82;70.86;95343.13;5045239;28;24443;-70
2022/08/16 10:38:19;;;;;;;5.97;3.50;;;;;;;23.36;69.42;95340.75;5045441;28;24805;-71
2022/08/16 10:40:45;;;;;;;7.38;3.80;;;;;;;23.44;67.82;95345.97;5045792;28;24442;-70
2022/08/16 10:43:12;;;;;;;6.33;3.50;;;;;;;23.50;67.86;95352.31;5043858;28;24557;-72
2022/08/16 10:45:39;;;;;;;5.85;3.72;;;;;;;23.84;68.85;95349.03;5038290;28;24435;-68
2022/08/16 10:48:09;;;;;;;4.97;3.30;;;;;;;23.80;68.92;95350.41;5045962;28;24487;-70
2022/08/16 10:50:37;;;;;;;7.35;3.47;;;;;;;23.84;70.11;95354.31;5045814;28;24501;-71
2022/08/16 10:53:05;;;;;;;5.07;3.50;;;;;;;23.88;66.54;95352.97;5045951;28;24996;-71
2022/08/16 10:55:32;;;;;;;4.67;3.37;;;;;;;23.78;67.13;95350.63;5046914;28;24441;-71
2022/08/16 10:58:01;;;;;;;4.45;3.20;;;;;;;23.78;69.05;95355.91;5049042;28;25010;-71
2022/08/16 11:00:28;;;;;;;4.93;3.33;;;;;;;23.68;66.16;95358.03;5049013;28;24439;-71
2022/08/16 11:02:54;;;;;;;4.47;3.25;;;;;;;24.53;69.18;95354.53;5049633;28;24442;-72
2022/08/16 11:05:21;;;;;;;5.63;3.55;;;;;;;24.19;64.48;95363.19;5046737;28;24439;-72
2022/08/16 11:07:51;;;;;;;6.75;3.47;;;;;;;24.67;65.79;95355.44;5048068;28;25003;-72
2022/08/16 11:10:22;;;;;;;4.70;3.20;;;;;;;25.02;64.22;95348.31;5049100;28;25055;-72
2022/08/16 11:12:49;;;;;;;4.57;3.20;;;;;;;25.12;65.04;95353.28;5052490;28;24462;-70
2022/08/16 11:15:16;;;;;;;6.78;3.60;;;;;;;25.41;62.65;95349.53;5052438;28;24450;-72
2022/08/16 11:17:42;;;;;;;5.90;3.85;;;;;;;25.35;61.19;95352.97;5051776;28;24431;-71
2022/08/16 11:20:12;;;;;;;4.72;3.10;;;;;;;25.18;61.64;95352.50;5051680;28;24446;-71
2022/08/16 11:22:39;;;;;;;6.10;3.30;;;;;;;25.30;58.24;95352.75;5052002;28;24438;-71
2022/08/16 11:25:07;;;;;;;4.65;3.35;;;;;;;25.16;60.56;95351.88;5049939;28;24443;-72
2022/08/16 11:27:34;;;;;;;4.18;3.05;;;;;;;24.94;60.64;95351.13;5051381;28;24463;-71
2022/08/16 11:30:00;;;;;;;5.53;3.30;;;;;;;25.44;61.18;95350.97;5051503;28;24435;-71